»·PEaware :: N21LG KSNA-KPSP

N21LG :: KSNA-KPSP

FLIGHT INFORMATION

Flight Status: Arrived
Operator: Privately registered:
United States
More flights under this callsign
Pilot: Anonymous 3903 (3903)
Aircraft: CESSNA 550 CITATION 2/S2/BRAVO
(C550)
More flights by this aircraft type
Origin: KSNA John Wayne-Orange Co
United States
Destination: KPSP Palm Springs Intl
United States
More flights between these airports :: More routes between these airports
Route: +MUSEL8 TRM
File this flight plan on PilotEdge
Remarks: SIMBRIEF
Altitude:
(Current/Filed)
25,000ft
Speed:
(Current/Filed)
339kts
Departed: 12-Aug-17 01:48 PM
Arrived: 12-Aug-17 02:21 PM
Distance/Time
Traveled:
68nm/0:33
Distance/Time
To Go:
Arrived

Flight Plot

Page will automatically refresh every two minutes.


Map Options




Map Legend


Flown Route
Filed Route
Departure Airport
Arrival Airport
Navaid (VOR, NDB)
Fix

Horizontal Profiles

Position Reports

Time Latitude Longitude Heading Altitude Ground
Speed
12-Aug-17 13:29 33.671497 -117.873693 209 59ft 0kts
12-Aug-17 13:30 33.671495 -117.873694 209 59ft 0kts
12-Aug-17 13:31 33.671493 -117.873696 209 59ft 0kts
12-Aug-17 13:32 33.671492 -117.873697 209 59ft 0kts
12-Aug-17 13:33 33.671490 -117.873698 209 59ft 0kts
12-Aug-17 13:34 33.671488 -117.873699 209 59ft 0kts
12-Aug-17 13:35 33.671486 -117.873700 209 59ft 0kts
12-Aug-17 13:36 33.671484 -117.873702 209 59ft 0kts
12-Aug-17 13:37 33.671482 -117.873704 209 59ft 0kts
12-Aug-17 13:38 33.671479 -117.873705 209 59ft 0kts
12-Aug-17 13:39 33.671477 -117.873707 209 59ft 0kts
12-Aug-17 13:41 33.671475 -117.873708 209 59ft 0kts
12-Aug-17 13:42 33.671472 -117.873710 209 59ft 0kts
12-Aug-17 13:43 33.671470 -117.873712 209 59ft 0kts
12-Aug-17 13:44 33.671467 -117.873713 209 59ft 0kts
12-Aug-17 13:45 33.671465 -117.873715 209 59ft 0kts
12-Aug-17 13:46 33.671462 -117.873717 209 59ft 0kts
12-Aug-17 13:47 33.671460 -117.873718 209 59ft 0kts
12-Aug-17 13:48 33.672292 -117.872480 26 59ft 25kts
12-Aug-17 13:49 33.678482 -117.868665 26 59ft 26kts
12-Aug-17 13:50 33.681791 -117.865796 119 59ft 0kts
12-Aug-17 13:51 33.681490 -117.865206 161 59ft 9kts
12-Aug-17 13:52 33.669660 -117.872723 206 672ft 121kts
12-Aug-17 13:53 33.630979 -117.896626 197 3627ft 204kts
12-Aug-17 13:54 33.570426 -117.916321 187 6293ft 236kts
12-Aug-17 13:55 33.541685 -117.855487 83 7005ft 269kts
12-Aug-17 13:56 33.554749 -117.765424 79 7000ft 276kts
12-Aug-17 13:57 33.568963 -117.674241 80 7940ft 281kts
12-Aug-17 13:58 33.584338 -117.578583 80 10308ft 298kts
12-Aug-17 13:59 33.601664 -117.473007 79 11171ft 335kts
12-Aug-17 14:00 33.606263 -117.367277 91 12999ft 319kts
12-Aug-17 14:01 33.608019 -117.258087 89 13002ft 333kts
12-Aug-17 14:02 33.610512 -117.145115 89 12995ft 333kts
12-Aug-17 14:03 33.612859 -117.035733 89 12992ft 325kts
12-Aug-17 14:04 33.615104 -116.927163 89 12983ft 326kts
12-Aug-17 14:05 33.617290 -116.817320 89 13037ft 327kts
12-Aug-17 14:06 33.619389 -116.706948 89 13021ft 329kts
12-Aug-17 14:07 33.621317 -116.600497 90 12249ft 300kts
12-Aug-17 14:08 33.622973 -116.503089 90 10748ft 287kts
12-Aug-17 14:09 33.624628 -116.410379 89 9246ft 262kts
12-Aug-17 14:10 33.625839 -116.328355 90 7734ft 236kts
12-Aug-17 14:10 33.626805 -116.262577 90 6913ft 223kts
12-Aug-17 14:12 33.627990 -116.176529 90 6868ft 220kts
12-Aug-17 14:12 33.638365 -116.114282 76 6565ft 225kts
12-Aug-17 14:14 33.622278 -116.045890 171 4716ft 200kts
12-Aug-17 14:14 33.590588 -116.076561 266 3866ft 191kts
12-Aug-17 14:15 33.611573 -116.130343 295 3873ft 174kts
12-Aug-17 14:16 33.639197 -116.179120 303 3669ft 184kts
12-Aug-17 14:17 33.669709 -116.231362 302 3053ft 195kts
12-Aug-17 14:18 33.700060 -116.283375 302 2872ft 181kts
12-Aug-17 14:19 33.729479 -116.333867 302 2857ft 184kts
12-Aug-17 14:20 33.757843 -116.382573 303 2834ft 176kts
12-Aug-17 14:21 33.775158 -116.429454 281 1951ft 154kts
12-Aug-17 14:22 33.788723 -116.471301 323 1228ft 128kts
12-Aug-17 14:23 33.814994 -116.494688 325 668ft 113kts
12-Aug-17 14:24 33.832429 -116.510075 323 480ft 30kts
12-Aug-17 14:25 33.833367 -116.512252 233 480ft 2kts
12-Aug-17 14:26 33.828557 -116.508716 143 480ft 21kts
12-Aug-17 14:27 33.826071 -116.508757 308 480ft 14kts
12-Aug-17 14:28 33.826261 -116.510301 272 480ft 0kts
12-Aug-17 14:29 33.826261 -116.510304 272 480ft 0kts
12-Aug-17 14:30 33.826261 -116.510307 272 480ft 0kts
12-Aug-17 14:31 33.826261 -116.510307 272 480ft 0kts
12-Aug-17 14:32 33.826261 -116.510307 272 480ft 0kts
12-Aug-17 14:33 33.826261 -116.510307 272 480ft 0kts
12-Aug-17 14:34 33.826261 -116.510307 272 480ft 0kts
12-Aug-17 14:35 33.826261 -116.510307 272 480ft 0kts
12-Aug-17 14:36 33.826261 -116.510307 272 480ft 0kts
12-Aug-17 14:37 33.826261 -116.510307 272 480ft 0kts

Navigation Log

Ident Type
1. KSNA Airport
2. MUSEL Fix
3. MUSEL Fix
4. TEYKI Fix
5. HAPPE Fix
6. BALDI Fix
7. CORLA Fix
8. TRM Navaid
9. KPSP Airport